Terminal Aerodrome Forecast
Issued by NWS Upton, NY

Current Version | Previous Version | Text Only | Print | Product List | Glossary On
Versions: 1 2 3 4 5 6 7 8 9 10 11 12 13 14 15 16 17 18 19 20 21 22 23 24 25 26 27 28 29 30 31 32 33 34 35 36 37 38 39
254
FTUS41 KOKX 300231 AAA
TAFEWR
TAF AMD
KEWR 300231Z 3003/0106 VRB04KT P6SM SCT060
     FM300400 34006KT P6SM SCT060
     FM302000 16007KT P6SM SCT060
     FM010200 20006KT P6SM FEW060 SCT250=

USA.gov is the U.S. government's official web portal to all federal, state and local government web resources and services.